createdAt,value
2022-11-05T00:04:15.360Z,13.7
2022-11-05T00:09:13.582Z,13.7
2022-11-05T00:14:11.682Z,13.6
2022-11-05T00:19:09.864Z,13.6
2022-11-05T00:24:07.995Z,13.5
2022-11-05T00:29:06.259Z,13.5
2022-11-05T00:34:04.481Z,13.5
2022-11-05T00:39:02.784Z,13.5
2022-11-05T00:44:01.072Z,13.5
2022-11-05T00:48:59.337Z,13.6
2022-11-05T00:53:57.383Z,13.5
2022-11-05T00:58:55.477Z,13.4
2022-11-05T01:03:53.694Z,13.4
2022-11-05T01:08:51.657Z,13.5
2022-11-05T01:13:49.817Z,13.4
2022-11-05T01:18:47.732Z,13.3
2022-11-05T01:23:45.735Z,13.1
2022-11-05T01:28:43.607Z,12.9
2022-11-05T01:33:41.513Z,12.8
2022-11-05T01:38:39.758Z,12.7
2022-11-05T01:43:37.819Z,12.6
2022-11-05T01:48:35.871Z,12.5
2022-11-05T01:53:34.019Z,12.4
2022-11-05T01:58:32.118Z,12.4
2022-11-05T02:03:30.206Z,12.4
2022-11-05T02:08:28.245Z,12.4
2022-11-05T02:13:26.166Z,12.3
2022-11-05T02:18:24.540Z,12.2
2022-11-05T02:23:22.856Z,12.1
2022-11-05T02:28:20.931Z,11.9
2022-11-05T02:33:18.983Z,11.8
2022-11-05T02:38:17.050Z,11.8
2022-11-05T02:43:15.358Z,11.8
2022-11-05T02:48:13.273Z,11.8
2022-11-05T02:53:11.540Z,11.6
2022-11-05T02:58:09.270Z,11.3
2022-11-05T03:03:05.920Z,11.2
2022-11-05T03:08:03.969Z,11.2
2022-11-05T03:13:02.015Z,10.9
2022-11-05T03:18:00.296Z,11.1
2022-11-05T03:22:58.423Z,11.1
2022-11-05T03:27:56.377Z,11.2
2022-11-05T03:32:54.496Z,11.3
2022-11-05T03:37:52.777Z,11.4
2022-11-05T03:42:50.715Z,10.5
2022-11-05T03:47:48.818Z,11.2
2022-11-05T03:52:47.092Z,11
2022-11-05T03:57:45.122Z,11.1
2022-11-05T04:02:43.297Z,11
2022-11-05T04:07:41.392Z,11
2022-11-05T04:12:39.444Z,10.9
2022-11-05T04:17:37.947Z,11.2
2022-11-05T04:22:36.587Z,11.4
2022-11-05T04:27:35.068Z,11.6
2022-11-05T04:32:33.401Z,11.7
2022-11-05T04:37:31.552Z,11.7
2022-11-05T04:42:29.817Z,11.8
2022-11-05T04:47:27.952Z,11.9
2022-11-05T04:52:26.238Z,12
2022-11-05T04:57:24.461Z,12
2022-11-05T05:02:22.781Z,11.9
2022-11-05T05:07:20.799Z,11.8
2022-11-05T05:12:19.098Z,12
2022-11-05T05:17:17.142Z,12
2022-11-05T05:22:15.260Z,11.9
2022-11-05T05:27:13.437Z,11.6
2022-11-05T05:32:11.623Z,11.8
2022-11-05T05:37:09.818Z,12.1
2022-11-05T05:42:08.330Z,12.1
2022-11-05T05:47:06.850Z,12.8
2022-11-05T05:52:05.465Z,12.9
2022-11-05T05:57:04.018Z,13.4
2022-11-05T06:02:02.563Z,13.9
2022-11-05T06:07:00.915Z,14.3
2022-11-05T06:11:59.958Z,16.1
2022-11-05T06:17:01.509Z,19.3
2022-11-05T06:22:00.750Z,20.1
2022-11-05T06:27:00.360Z,21.9
2022-11-05T06:31:58.569Z,22.5
2022-11-05T06:36:59.028Z,24.6
2022-11-05T06:46:59.558Z,28.1
2022-11-05T06:51:56.548Z,27.4
2022-11-05T06:56:56.916Z,29.1
2022-11-05T07:01:56.689Z,30.9
2022-11-05T07:06:53.956Z,31.2
2022-11-05T07:11:55.234Z,34.1
2022-11-05T07:16:54.987Z,35.2
2022-11-05T07:21:54.139Z,36.2
2022-11-05T07:26:51.854Z,35.6
2022-11-05T07:31:51.637Z,36.7
2022-11-05T07:36:45.177Z,32.4
2022-11-05T07:41:39.491Z,29.3
2022-11-05T07:46:41.152Z,32.9
2022-11-05T07:51:43.701Z,36.5
2022-11-05T07:56:39.819Z,34.2
2022-11-05T08:01:37.271Z,32.9
2022-11-05T08:06:33.925Z,31.7
2022-11-05T08:11:29.387Z,28.9
2022-11-05T08:16:25.415Z,27.7
2022-11-05T08:21:22.506Z,27
2022-11-05T08:26:20.162Z,26.8
2022-11-05T08:31:17.917Z,25.8
2022-11-05T08:36:15.472Z,25.2
2022-11-05T08:41:13.161Z,24.9
2022-11-05T08:46:10.879Z,24.4
2022-11-05T08:51:09.129Z,24.6
2022-11-05T08:56:06.803Z,24.2
2022-11-05T09:01:05.345Z,24.3
2022-11-05T09:06:02.292Z,24.3
2022-11-05T09:11:00.189Z,24
2022-11-05T09:15:58.508Z,24
2022-11-05T09:20:56.502Z,23.9
2022-11-05T09:25:54.677Z,24.1
2022-11-05T09:30:52.766Z,24
2022-11-05T09:35:51.178Z,24.5
2022-11-05T09:40:50.013Z,25.3
2022-11-05T09:45:49.069Z,25.1
2022-11-05T09:50:47.032Z,25.6
2022-11-05T09:55:44.863Z,24.9
2022-11-05T10:00:43.551Z,25.3
2022-11-05T10:05:41.873Z,25
2022-11-05T10:10:41.232Z,24.6
2022-11-05T10:15:38.587Z,24.6
2022-11-05T10:20:36.707Z,24.4
2022-11-05T10:25:34.216Z,24.2
2022-11-05T10:30:32.467Z,24.4
2022-11-05T10:35:31.016Z,25
2022-11-05T10:40:29.539Z,25.1
2022-11-05T10:45:27.802Z,25.4
2022-11-05T10:50:26.188Z,25.7
2022-11-05T10:55:24.656Z,25.5
2022-11-05T11:00:22.908Z,25.6
2022-11-05T11:05:20.800Z,25
2022-11-05T11:10:18.312Z,24
2022-11-05T11:15:16.071Z,24.6
2022-11-05T11:20:14.182Z,24.6
2022-11-05T11:25:12.252Z,24.5
2022-11-05T11:30:10.020Z,23.9
2022-11-05T11:35:07.850Z,23.5
2022-11-05T11:40:05.790Z,23.3
2022-11-05T11:45:03.520Z,23
2022-11-05T11:50:01.619Z,22.7
2022-11-05T11:54:59.748Z,23
2022-11-05T12:00:13.387Z,23.4
2022-11-05T12:04:56.105Z,23.2
2022-11-05T12:09:53.966Z,22.7
2022-11-05T12:14:51.742Z,22.7
2022-11-05T12:19:49.885Z,22.3
2022-11-05T12:24:47.641Z,21.8
2022-11-05T12:29:45.708Z,21.5
2022-11-05T12:34:43.505Z,21.1
2022-11-05T12:39:41.736Z,21.3
2022-11-05T12:44:39.656Z,21.1
2022-11-05T12:49:37.743Z,20.9
2022-11-05T12:54:36.112Z,20.8
2022-11-05T12:59:34.454Z,21.1
2022-11-05T13:04:32.708Z,21.5
2022-11-05T13:09:30.883Z,21.6
2022-11-05T13:14:29.218Z,21.5
2022-11-05T13:19:28.035Z,21.3
2022-11-05T13:24:25.920Z,21
2022-11-05T13:29:24.282Z,20.6
2022-11-05T13:34:22.058Z,20.2
2022-11-05T13:39:20.300Z,19.9
2022-11-05T13:44:18.417Z,19.6
2022-11-05T13:49:16.620Z,19.5
2022-11-05T13:54:14.635Z,19.3
2022-11-05T13:59:13.080Z,19.3
2022-11-05T14:04:11.207Z,19.1
2022-11-05T14:09:09.238Z,19
2022-11-05T14:14:07.665Z,19
2022-11-05T14:19:05.691Z,18.7
2022-11-05T14:24:03.420Z,18.4
2022-11-05T14:29:01.156Z,17.9
2022-11-05T14:33:58.861Z,17.5
2022-11-05T14:39:01.463Z,17.2
2022-11-05T14:43:54.870Z,16.7
2022-11-05T14:48:52.664Z,16.2
2022-11-05T14:53:50.539Z,15.8
2022-11-05T14:58:48.570Z,15.5
2022-11-05T15:03:47.395Z,15.1
2022-11-05T15:08:46.591Z,14.9
2022-11-05T15:13:44.414Z,14.6
2022-11-05T15:18:42.419Z,14.4
2022-11-05T15:23:40.871Z,14.4
2022-11-05T15:28:38.894Z,14.3
2022-11-05T15:33:36.919Z,14.2
2022-11-05T15:38:35.371Z,14.2
2022-11-05T15:43:33.542Z,14.1
2022-11-05T15:48:31.742Z,14.1
2022-11-05T15:53:44.507Z,14
2022-11-05T15:58:28.160Z,13.9
2022-11-05T16:03:26.123Z,13.7
2022-11-05T16:08:23.948Z,13.6
2022-11-05T16:13:21.867Z,13.6
2022-11-05T16:18:20.286Z,13.5
2022-11-05T16:23:18.491Z,13.5
2022-11-05T16:28:16.786Z,13.6
2022-11-05T16:33:15.081Z,13.6
2022-11-05T16:38:13.571Z,13.5
2022-11-05T16:43:11.184Z,13.4
2022-11-05T16:48:09.448Z,13.4
2022-11-05T16:53:10.317Z,13.3
2022-11-05T16:58:08.167Z,13.2
2022-11-05T17:03:06.172Z,13.3
2022-11-05T17:08:04.302Z,13.3
2022-11-05T17:13:02.626Z,13.2
2022-11-05T17:18:00.590Z,13
2022-11-05T17:22:58.635Z,12.7
2022-11-05T17:27:56.527Z,12.5
2022-11-05T17:32:55.041Z,12.4
2022-11-05T17:37:52.978Z,12.2
2022-11-05T17:42:51.135Z,12
2022-11-05T17:47:49.522Z,11.8
2022-11-05T17:52:47.499Z,11.4
2022-11-05T17:57:45.676Z,11.2
2022-11-05T18:02:43.712Z,11.1
2022-11-05T18:07:41.800Z,11
2022-11-05T18:12:40.223Z,11
2022-11-05T18:17:38.626Z,11
2022-11-05T18:22:37.188Z,11.1
2022-11-05T18:27:35.543Z,11
2022-11-05T18:32:33.738Z,10.9
2022-11-05T18:37:32.315Z,10.8
2022-11-05T18:42:30.357Z,10.6
2022-11-05T18:47:28.529Z,10.3
2022-11-05T18:52:26.967Z,10.4
2022-11-05T18:57:25.565Z,10.5
2022-11-05T19:02:24.108Z,10.6
2022-11-05T19:07:22.226Z,10.7
2022-11-05T19:12:20.686Z,10.7
2022-11-05T19:17:19.244Z,10.8
2022-11-05T19:22:17.742Z,10.9
2022-11-05T19:27:16.163Z,11
2022-11-05T19:32:14.899Z,11.3
2022-11-05T19:37:13.188Z,11.4
2022-11-05T19:42:11.587Z,11.2
2022-11-05T19:47:09.840Z,11.1
2022-11-05T19:52:08.180Z,11.1
2022-11-05T19:57:06.399Z,11.1
2022-11-05T20:02:04.948Z,11.1
2022-11-05T20:07:03.113Z,11.3
2022-11-05T20:12:01.520Z,11.4
2022-11-05T20:17:00.012Z,11.6
2022-11-05T20:21:58.320Z,11.8
2022-11-05T20:26:56.524Z,12
2022-11-05T20:31:54.968Z,12
2022-11-05T20:36:53.173Z,12
2022-11-05T20:41:51.480Z,12.1
2022-11-05T20:46:49.801Z,12.1
2022-11-05T20:51:47.859Z,11.9
2022-11-05T20:56:45.696Z,11.6
2022-11-05T21:01:44.186Z,11.3
2022-11-05T21:06:42.232Z,10.6
2022-11-05T21:11:40.208Z,10.6
2022-11-05T21:16:38.462Z,10.6
2022-11-05T21:21:40.861Z,10.5
2022-11-05T21:26:35.339Z,10.4
2022-11-05T21:31:33.571Z,10.3
2022-11-05T21:36:32.061Z,10.7
2022-11-05T21:41:30.460Z,10.8
2022-11-05T21:46:28.750Z,10.4
2022-11-05T21:51:26.722Z,9.8
2022-11-05T21:56:24.473Z,9.2
2022-11-05T22:01:22.437Z,8.8
2022-11-05T22:06:20.221Z,8.6
2022-11-05T22:11:18.021Z,8.5
2022-11-05T22:16:16.444Z,8.6
2022-11-05T22:21:14.405Z,8.6
2022-11-05T22:26:12.766Z,8.7
2022-11-05T22:31:11.061Z,8.6
2022-11-05T22:36:09.524Z,8.8
2022-11-05T22:41:08.172Z,8.8
2022-11-05T22:46:06.450Z,8.7
2022-11-05T22:51:04.747Z,8.4
2022-11-05T22:56:03.141Z,8.4
2022-11-05T23:01:01.167Z,8.2
2022-11-05T23:05:59.827Z,8.3
2022-11-05T23:10:58.207Z,8.5
2022-11-05T23:15:56.560Z,8.5
2022-11-05T23:20:55.038Z,8.6
2022-11-05T23:25:53.833Z,8.7
2022-11-05T23:30:52.259Z,8.8
2022-11-05T23:35:50.536Z,8.9
2022-11-05T23:40:48.675Z,8.9
2022-11-05T23:45:47.047Z,9.1
2022-11-05T23:50:45.415Z,8.9
2022-11-05T23:55:43.603Z,8.8
